Main page
METAR-TAF:

METAR-TAF

Airports :

Brussels Airport. Zaventem

Brussels, Belgium

latitude: 50-54N, longitude: 004-32E, elevation: 55 m

Current weather observation

The report was made 44 minutes ago, at 00:50 UTC
Wind 7 kt from the West
Temperature 4°C
Humidity 87%
Pressure 1010 hPa
Visibility 10 km or more
Few clouds at a height of 4000 ft

METAR: EBBR 250050Z 26007KT 9999 FEW040 04/02 Q1010 NOSIG

Time: 03:34 (01:34 UTC)

Forecast

The report was made 2 hours and 19 minutes ago, at 23:15 UTC
Forecast valid from 25 at 00 UTC to 26 at 06 UTC
Wind 6 kt from the West
Visibility 10 km or more
Scattered clouds at a height of 2500 ft
Probability 30% :
Temporary
from 26 at 03 UTC to 26 at 06 UTC
Visibility: 3500 m
Scattered clouds at a height of 800 ft
Broken clouds at a height of 1200 ft
rain, rain showers,

TAF: EBBR 242315Z 2500/2606 26006KT 9999 SCT025 PROB30 TEMPO 2603/2606 3500 RA SHRA SCT008 BKN012

Weather observations and forecasts of more than 4000 airports (METAR and TAF reports).

The available stations are represented by yellow and red dots on the map.

Hover mouse over dot to see the name of the station.

Then click to see weather observations and forecasts.

To change the map : click on the green buttons with a black cross to zoom in, on the green button with a dash to zoom out, or on the green arrows for adjacent maps.


METAR-TAF: